Flight Track Log - Related Links

Times and Time Zones

All times are in EDT time to prevent confusion due to time zone crossing. See the JBU300 flight status page for this flight to view local times or setup timezone preferences in your user account.

Time Position Orientation Groundspeed Altitude Reporting Facility
EDT Latitude Longitude Course Direction KTS MPH feet Rate Location/Type
Sun 12:31:27 AM 33.8150 -118.1480 140° Southeast 140 161 100  Level FlightAware ADS-B
Sun 12:31:52 AM 33.8310 -118.1680 314° West 181 208 1,000 1,964 Climbing FlightAware ADS-B
Sun 12:32:22 AM 33.8480 -118.1910 312° West 204 235 1,900 1,467 Climbing FlightAware ADS-B
Sun 12:32:37 AM 33.8510 -118.2060 284° West 219 252 2,100 1,650 Climbing FlightAware ADS-B
Sun 12:33:02 AM 33.8380 -118.2360 242° Southwest 240 276 3,000 2,400 Climbing FlightAware ADS-B
Sun 12:33:17 AM 33.8220 -118.2440 203° Southwest 244 281 3,700 3,067 Climbing FlightAware ADS-B
Sun 12:33:47 AM 33.7900 -118.2520 192° South 241 277 5,300 2,727 Climbing FlightAware ADS-B
Sun 12:34:12 AM 33.7600 -118.2580 189° South 259 298 6,200 2,509 Climbing FlightAware ADS-B
Sun 12:34:42 AM 33.7240 -118.2640 188° South 264 304 7,600 2,520 Climbing FlightAware ADS-B
Sun 12:35:02 AM 33.7010 -118.2680 188° South 275 316 8,300 1,964 Climbing FlightAware ADS-B
Sun 12:35:37 AM 33.6590 -118.2450 155° Southeast 310 357 9,400 1,920 Climbing FlightAware ADS-B
Sun 12:35:52 AM 33.6480 -118.2200 118° Southeast 317 365 9,900 1,527 Climbing FlightAware ADS-B
Sun 12:36:32 AM 33.6430 -118.1470 95° East 347 399 10,800 1,271 Climbing FlightAware ADS-B
Sun 12:37:17 AM 33.6390 -118.0560 93° East 385 443 11,700 1,516 Climbing FlightAware ADS-B
Sun 12:38:07 AM 33.6390 -117.9660 90° East 392 451 13,200 1,958 Climbing FlightAware ADS-B
Sun 12:38:52 AM 33.6390 -117.8730 90° East 395 455 14,800 2,000 Climbing FlightAware ADS-B
Sun 12:39:37 AM 33.6390 -117.7720 90° East 403 464 16,200 1,950 Climbing FlightAware ADS-B
Sun 12:40:12 AM 33.6390 -117.6910 90° East 406 467 17,400 1,800 Climbing FlightAware ADS-B
Sun 12:40:57 AM 33.6390 -117.5960 90° East 412 474 18,600 1,533 Climbing FlightAware ADS-B
Sun 12:41:42 AM 33.6390 -117.4920 90° East 424 488 19,700 1,694 Climbing FlightAware ADS-B
Sun 12:42:22 AM 33.6380 -117.3680 91° East 430 495 21,000 1,694 Climbing FlightAware ADS-B
Sun 12:43:07 AM 33.6380 -117.2630 90° East 436 502 22,100 1,341 Climbing FlightAware ADS-B
Sun 12:43:47 AM 33.6380 -117.1630 90° East 444 511 22,900 1,129 Climbing FlightAware ADS-B
Sun 12:44:32 AM 33.6370 -117.0530 91° East 455 524 23,700 1,059 Climbing FlightAware ADS-B
Sun 12:45:12 AM 33.6360 -116.9510 91° East 463 533 24,400 1,125 Climbing FlightAware ADS-B
Sun 12:45:52 AM 33.6350 -116.8450 91° East 470 541 25,200 1,059 Climbing FlightAware ADS-B
Sun 12:46:37 AM 33.6350 -116.7280 90° East 477 549 25,900 1,050 Climbing FlightAware ADS-B
Sun 12:47:12 AM 33.6350 -116.6340 90° East 478 550 26,600 1,129 Climbing FlightAware ADS-B
Sun 12:48:02 AM 33.6340 -116.5020 90° East 487 560 27,500 933 Climbing FlightAware ADS-B
Sun 12:48:42 AM 33.6340 -116.3940 90° East 492 566 28,000 600 Climbing FlightAware ADS-B
Sun 12:49:22 AM 33.6330 -116.3010 91° East 498 573 28,300 800 Climbing FlightAware ADS-B
Sun 12:49:57 AM 33.6330 -116.1890 90° East 500 575 29,000 1,129 Climbing FlightAware ADS-B
Sun 12:50:47 AM 33.6320 -116.0540 90° East 499 574 29,900 1,074 Climbing FlightAware ADS-B
Sun 12:51:32 AM 33.6320 -115.9320 90° East 497 572 30,700 988 Climbing FlightAware ADS-B
Sun 12:52:12 AM 33.6310 -115.8150 91° East 499 574 31,300 800 Climbing FlightAware ADS-B
Sun 12:52:47 AM 33.6300 -115.7230 91° East 499 574 31,700 1,200 Climbing FlightAware ADS-B
Sun 12:53:37 AM 33.6270 -115.5850 91° East 486 559 33,000 1,067 Climbing FlightAware ADS-B
Sun 12:54:17 AM 33.6260 -115.4840 91° East 483 556 33,300 225 Climbing FlightAware ADS-B
Sun 12:54:57 AM 33.6260 -115.3920 90° East 483 556 33,300  Level FlightAware ADS-B
Sun 12:55:37 AM 33.6260 -115.3010 90° East 483 556 33,300  Level FlightAware ADS-B
Sun 12:56:27 AM 33.6260 -115.1870 90° East 483 556 33,300  Level FlightAware ADS-B
Sun 12:57:07 AM 33.6260 -115.0960 90° East 483 556 33,300  Level FlightAware ADS-B
Sun 12:57:47 AM 33.6260 -115.0050 90° East 483 556 33,300  Level FlightAware ADS-B
Sun 12:58:27 AM 33.6260 -114.9130 90° East 483 556 33,300  Level FlightAware ADS-B
Sun 12:59:07 AM 33.6260 -114.8220 90° East 483 556 33,300  Level FlightAware ADS-B
Sun 12:59:47 AM 33.6260 -114.7310 90° East 483 556 33,300  Level FlightAware ADS-B
Sun 01:00:37 AM 33.6260 -114.6170 90° East 483 556 33,300  Level FlightAware ADS-B
Sun 01:01:17 AM 33.6260 -114.5260 90° East 483 556 33,300  Level FlightAware ADS-B
Sun 01:01:57 AM 33.6260 -114.4340 90° East 483 556 33,300  Level FlightAware ADS-B
Sun 01:02:37 AM 33.6260 -114.3430 90° East 483 556 33,300 1,360 Level FlightAware ADS-B
Sun 01:03:12 AM 34.0280 -114.1350 23° Northeast 478 550 35,000 1,360 Climbing FlightAware ADS-B
Sun 01:03:52 AM 34.0570 -114.0350 71° East 480 552 35,000  Level FlightAware ADS-B
Sun 01:04:42 AM 34.0900 -113.9160 71° East 482 555 35,000  Level FlightAware ADS-B
Sun 01:05:32 AM 34.1210 -113.8080 71° East 482 555 35,000  Level FlightAware ADS-B
Sun 01:06:12 AM 34.1460 -113.7210 71° East 482 555 35,000  Level FlightAware ADS-B
Sun 01:06:52 AM 34.1860 -113.5760 72° East 483 556 35,000  Level FlightAware ADS-B
Sun 01:07:37 AM 34.2160 -113.4670 72° East 483 556 35,000  Level FlightAware ADS-B
Sun 01:08:17 AM 34.2450 -113.3610 72° East 484 557 35,000  Level FlightAware ADS-B
Sun 01:09:02 AM 34.2770 -113.2440 72° East 485 558 35,000  Level FlightAware ADS-B
Sun 01:09:42 AM 34.3060 -113.1380 72° East 485 558 35,000  Level FlightAware ADS-B
Sun 01:10:22 AM 34.3340 -113.0380 71° East 486 559 35,000  Level FlightAware ADS-B
Sun 01:11:07 AM 34.3670 -112.9180 72° East 486 559 35,000  Level FlightAware ADS-B
Sun 01:11:47 AM 34.3940 -112.8170 72° East 485 558 35,000  Level FlightAware ADS-B
Sun 01:12:32 AM 34.4250 -112.7030 72° East 485 558 35,000  Level FlightAware ADS-B
Sun 01:13:12 AM 34.4530 -112.5990 72° East 487 560 35,000  Level FlightAware ADS-B
Sun 01:13:52 AM 34.4790 -112.5000 72° East 488 562 35,000  Level FlightAware ADS-B
Sun 01:14:37 AM 34.5110 -112.3810 72° East 488 562 35,000  Level FlightAware ADS-B
Sun 01:15:17 AM 34.5390 -112.2770 72° East 490 564 35,000  Level FlightAware ADS-B
Sun 01:16:02 AM 34.5710 -112.1570 72° East 494 568 35,000  Level FlightAware ADS-B
Sun 01:16:42 AM 34.5970 -112.0580 72° East 494 568 35,000  Level FlightAware ADS-B
Sun 01:17:37 AM 34.6360 -111.9090 72° East 495 570 35,000  Level FlightAware ADS-B
Sun 01:18:22 AM 34.6680 -111.7870 72° East 494 568 35,000  Level FlightAware ADS-B
Sun 01:19:02 AM 34.6950 -111.6820 73° East 493 567 35,000  Level FlightAware ADS-B
Sun 01:19:47 AM 34.7250 -111.5670 72° East 492 566 35,000  Level FlightAware ADS-B
Sun 01:20:22 AM 34.7480 -111.4780 73° East 491 565 35,000  Level FlightAware ADS-B
Sun 01:21:07 AM 34.7810 -111.3500 73° East 487 560 35,000 -67 Level FlightAware ADS-B
Sun 01:21:52 AM 34.8110 -111.2340 72° East 490 564 34,900 -71 Descending FlightAware ADS-B
Sun 01:22:32 AM 34.8360 -111.1380 72° East 489 563 34,900 71 Level FlightAware ADS-B
Sun 01:23:17 AM 34.8670 -111.0100 74° East 492 566 35,000 71 Climbing FlightAware ADS-B
Sun 01:23:57 AM 34.8940 -110.9060 72° East 501 577 35,000  Level FlightAware ADS-B
Sun 01:24:52 AM 34.9280 -110.7680 73° East 502 578 35,000  Level FlightAware ADS-B
Sun 01:25:32 AM 34.9510 -110.6760 73° East 502 578 35,000  Level FlightAware ADS-B
Sun 01:26:12 AM 34.9740 -110.5840 73° East 502 578 35,000  Level FlightAware ADS-B
Sun 01:26:52 AM 34.9970 -110.4920 73° East 502 578 35,000  Level FlightAware ADS-B
Sun 01:27:42 AM 35.0260 -110.3770 73° East 502 578 35,000  Level FlightAware ADS-B
Sun 01:28:22 AM 35.0490 -110.2840 73° East 502 578 35,000  Level FlightAware ADS-B
Sun 01:29:02 AM 35.0720 -110.1920 73° East 502 578 35,000  Level FlightAware ADS-B
Sun 01:29:42 AM 35.0950 -110.1000 73° East 502 578 35,000  Level FlightAware ADS-B
Sun 01:30:22 AM 35.1190 -110.0080 72° East 502 578 35,000  Level FlightAware ADS-B
Sun 01:31:12 AM 35.1470 -109.8920 74° East 502 578 35,000  Level FlightAware ADS-B
Sun 01:31:52 AM 35.1700 -109.8000 73° East 502 578 35,000  Level FlightAware ADS-B
Sun 01:32:32 AM 35.1940 -109.7070 72° East 502 578 35,000  Level FlightAware ADS-B
Sun 01:33:12 AM 35.2170 -109.6150 73° East 502 578 35,000  Level FlightAware ADS-B
Sun 01:33:52 AM 35.2400 -109.5220 73° East 502 578 35,000  Level FlightAware ADS-B
Sun 01:38:37 AM 35.4720 -108.5000 74° East 502 578 35,000  Level FlightAware ADS-B
Sun 01:39:12 AM 35.4930 -108.4050 75° East 494 568 35,000  Level FlightAware ADS-B
Sun 01:39:57 AM 35.5190 -108.2970 73° East 494 568 35,000 -67 Level FlightAware ADS-B
Sun 01:40:42 AM 35.5490 -108.1630 75° East 483 556 34,900  Descending FlightAware ADS-B
Sun 01:41:27 AM 35.5760 -108.0410 75° East 495 570 35,000 71 Climbing FlightAware ADS-B
Sun 01:42:07 AM 35.6000 -107.9320 75° East 505 581 35,000  Level FlightAware ADS-B
Sun 01:42:47 AM 35.6240 -107.8260 74° East 514 592 35,000  Level FlightAware ADS-B
Sun 01:43:32 AM 35.6520 -107.7010 75° East 504 580 35,000  Level FlightAware ADS-B
Sun 01:44:12 AM 35.6750 -107.5960 75° East 508 585 35,000  Level FlightAware ADS-B
Sun 01:44:57 AM 35.7050 -107.4590 75° East 508 585 35,000  Level FlightAware ADS-B
Sun 01:45:37 AM 35.7290 -107.3500 75° East 505 581 35,000  Level FlightAware ADS-B
Sun 01:46:17 AM 35.7530 -107.2360 75° East 505 581 35,000  Level FlightAware ADS-B
Sun 01:47:02 AM 35.7790 -107.1160 75° East 505 581 35,000  Level FlightAware ADS-B
Sun 01:47:42 AM 35.8030 -107.0060 75° East 501 577 35,000  Level FlightAware ADS-B
Sun 01:48:27 AM 35.8300 -106.8810 75° East 500 575 35,000 71 Level FlightAware ADS-B
Sun 01:49:07 AM 35.8520 -106.7750 76° East 487 560 35,100  Climbing FlightAware ADS-B
Sun 01:49:52 AM 35.8790 -106.6500 75° East 494 568 35,000 -71 Descending FlightAware ADS-B
Sun 01:50:32 AM 35.9000 -106.5500 75° East 492 566 35,000  Level FlightAware ADS-B
Sun 01:51:12 AM 35.9230 -106.4380 76° East 488 562 35,000  Level FlightAware ADS-B
Sun 01:51:57 AM 35.9470 -106.3300 75° East 488 562 35,000  Level FlightAware ADS-B
Sun 01:52:37 AM 35.9670 -106.2380 75° East 488 562 35,000  Level FlightAware ADS-B
Sun 01:53:17 AM 35.9860 -106.1470 76° East 488 562 35,000  Level FlightAware ADS-B
Sun 01:53:57 AM 36.0060 -106.0550 75° East 488 562 35,000  Level FlightAware ADS-B
Sun 01:54:57 AM 36.0490 -105.8340 76° East 496 571 35,000  Level FlightAware ADS-B
Sun 01:55:37 AM 36.0690 -105.7410 75° East 496 571 35,000  Level FlightAware ADS-B
Sun 01:56:22 AM 36.0950 -105.6030 77° East 493 567 35,000  Level FlightAware ADS-B
Sun 01:57:02 AM 36.1130 -105.5100 77° East 493 567 35,000  Level FlightAware ADS-B
Sun 01:57:42 AM 36.1320 -105.4170 76° East 493 567 35,000  Level FlightAware ADS-B
Sun 01:58:22 AM 36.1510 -105.3230 76° East 493 567 35,000  Level FlightAware ADS-B
Sun 01:59:12 AM 36.1740 -105.2070 76° East 493 567 35,000  Level FlightAware ADS-B
Sun 01:59:52 AM 36.1930 -105.1140 76° East 493 567 35,000  Level FlightAware ADS-B
Sun 02:00:32 AM 36.2120 -105.0200 76° East 493 567 35,000  Level FlightAware ADS-B
Sun 02:01:12 AM 36.2310 -104.9270 76° East 493 567 35,000  Level FlightAware ADS-B
Sun 02:01:52 AM 36.2490 -104.8340 76° East 493 567 35,000  Level FlightAware ADS-B
Sun 02:02:32 AM 36.2680 -104.7400 76° East 493 567 35,000  Level FlightAware ADS-B
Sun 02:03:22 AM 36.2910 -104.6240 76° East 493 567 35,000  Level FlightAware ADS-B
Sun 02:04:02 AM 36.3100 -104.5300 76° East 493 567 35,000  Level FlightAware ADS-B
Sun 02:04:42 AM 36.3290 -104.4370 76° East 493 567 35,000  Level FlightAware ADS-B
Sun 02:05:22 AM 36.3480 -104.3440 76° East 493 567 35,000 102 Level FlightAware ADS-B
Sun 02:05:41 AM 36.3853 -104.1061 76° East 480 552 35,100  Climbing Albuquerque Center
Sun 02:06:42 AM 36.4158 -103.9428 77° East 479 551 35,000 -50 Descending Albuquerque Center
Sun 02:07:42 AM 36.4461 -103.7792 77° East 485 558 35,000  Level Albuquerque Center
Sun 02:08:42 AM 36.4767 -103.6125 77° East 497 572 35,000  Level Albuquerque Center
Sun 02:09:43 AM 36.5078 -103.4400 77° East 507 583 35,000  Level Albuquerque Center
Sun 02:10:43 AM 36.5386 -103.2700 77° East 495 570 35,000  Level Albuquerque Center
Sun 02:11:43 AM 36.5686 -103.1036 77° East 488 562 35,000  Level Albuquerque Center
Sun 02:12:44 AM 36.5981 -102.9356 78° East 495 570 35,000  Level Albuquerque Center
Sun 02:13:44 AM 36.6267 -102.7731 78° East 497 572 35,000  Level Albuquerque Center
Sun 02:14:44 AM 36.6575 -102.5975 78° East 502 578 35,000  Level Albuquerque Center
Sun 02:15:45 AM 36.6819 -102.4550 78° East 494 568 35,000  Level Albuquerque Center
Sun 02:16:45 AM 36.7108 -102.2867 78° East 499 574 35,000 50 Level Albuquerque Center
Sun 02:17:45 AM 36.7442 -102.0903 78° East 499 574 35,100  Climbing Albuquerque Center
Sun 02:18:46 AM 36.7714 -101.9286 78° East 498 573 35,000 -50 Descending Albuquerque Center
Sun 02:19:46 AM 36.7981 -101.7683 78° East 494 568 35,000  Level Albuquerque Center
Sun 02:20:46 AM 36.8242 -101.6092 78° East 491 565 35,000 50 Level Albuquerque Center
Sun 02:21:47 AM 36.8542 -101.4253 78° East 483 556 35,100  Climbing Albuquerque Center
Sun 02:23:03 AM 36.8872 -101.2172 79° East 485 558 35,000 -44 Descending Kansas City Center
Sun 02:24:02 AM 36.9128 -101.0572 79° East 489 563 35,000  Level Kansas City Center
Sun 02:25:03 AM 36.9389 -100.8981 78° East 492 566 35,000  Level Kansas City Center
Sun 02:26:05 AM 36.9681 -100.7103 79° East 495 570 35,000  Level Kansas City Center
Sun 02:27:03 AM 36.9936 -100.5500 79° East 494 568 35,000  Level Kansas City Center
Sun 02:28:03 AM 37.0178 -100.3906 79° East 491 565 35,000  Level Kansas City Center
Sun 02:29:05 AM 37.0422 -100.2331 79° East 487 560 35,000  Level Kansas City Center
Sun 02:30:03 AM 37.0692 -100.0492 80° East 485 558 35,000  Level Kansas City Center
Sun 02:36:17 AM 37.2200 -99.0160 80° East 483 556 35,000  Level FlightAware ADS-B
Sun 02:36:52 AM 37.2330 -98.9240 80° East 482 555 35,000  Level FlightAware ADS-B
Sun 02:37:57 AM 37.2570 -98.7480 80° East 482 555 35,000  Level FlightAware ADS-B
Sun 02:38:37 AM 37.2720 -98.6410 80° East 483 556 35,000  Level FlightAware ADS-B
Sun 02:39:22 AM 37.2910 -98.5050 80° East 484 557 35,000  Level FlightAware ADS-B
Sun 02:40:17 AM 37.3100 -98.3650 80° East 482 555 35,000  Level FlightAware ADS-B
Sun 02:40:57 AM 37.3260 -98.2500 80° East 481 554 35,000  Level FlightAware ADS-B
Sun 02:41:42 AM 37.3430 -98.1220 80° East 479 551 35,000 488 Level FlightAware ADS-B
Sun 02:43:37 AM 37.3830 -97.8130 81° East 475 547 36,300 727 Climbing FlightAware ADS-B
Sun 02:44:27 AM 37.4000 -97.6810 81° East 475 547 37,000 467 Climbing FlightAware ADS-B
Sun 02:45:07 AM 37.4150 -97.5650 81° East 476 548 37,000  Level FlightAware ADS-B
Sun 02:45:52 AM 37.4300 -97.4450 81° East 474 545 37,000  Level FlightAware ADS-B
Sun 02:46:32 AM 37.4440 -97.3380 81° East 472 543 37,000  Level FlightAware ADS-B
Sun 02:47:17 AM 37.4590 -97.2130 81° East 467 537 37,000  Level FlightAware ADS-B
Sun 02:47:57 AM 37.4720 -97.1090 81° East 465 535 37,000  Level FlightAware ADS-B
Sun 02:48:42 AM 37.4870 -96.9870 81° East 464 534 37,000  Level FlightAware ADS-B
Sun 02:49:22 AM 37.5010 -96.8790 81° East 464 534 37,000  Level FlightAware ADS-B
Sun 02:49:57 AM 37.5110 -96.7910 82° East 463 533 37,000  Level FlightAware ADS-B
Sun 02:50:47 AM 37.5270 -96.6620 81° East 462 532 37,000  Level FlightAware ADS-B
Sun 02:51:22 AM 37.5390 -96.5600 82° East 462 532 37,000  Level FlightAware ADS-B
Sun 02:52:07 AM 37.5520 -96.4480 82° East 464 534 37,000  Level FlightAware ADS-B
Sun 02:52:47 AM 37.5660 -96.3390 81° East 465 535 37,000  Level FlightAware ADS-B
Sun 02:53:32 AM 37.5390 -96.5600 261° West 465 535 37,000  Level FlightAware ADS-B
Sun 02:54:07 AM 37.5500 -96.4740 81° East 465 535 37,000  Level FlightAware ADS-B
Sun 02:55:12 AM 37.6090 -95.9610 82° East 468 539 37,000  Level FlightAware ADS-B
Sun 02:55:52 AM 37.6230 -95.8450 81° East 468 539 37,000  Level FlightAware ADS-B
Sun 02:57:12 AM 37.6340 -95.7530 81° East 468 539 37,000  Level FlightAware ADS-B
Sun 02:57:57 AM 37.6260 -95.8220 262° West 470 541 37,000  Level FlightAware ADS-B
Sun 02:58:37 AM 37.6370 -95.7290 81° East 470 541 37,000  Level FlightAware ADS-B
Sun 02:59:17 AM 37.6490 -95.6370 81° East 470 541 37,000  Level FlightAware ADS-B
Sun 03:00:17 AM 37.6640 -95.4670 84° East 474 545 37,000  Level FlightAware ADS-B
Sun 03:00:58 AM 37.6740 -95.3710 82° East 474 545 37,000  Level FlightAware ADS-B
Sun 03:01:43 AM 37.7270 -94.8730 82° East 473 544 37,000  Level FlightAware ADS-B
Sun 03:02:23 AM 37.7390 -94.7620 82° East 474 545 37,000  Level FlightAware ADS-B
Sun 03:03:03 AM 37.7490 -94.6670 82° East 475 547 37,000  Level FlightAware ADS-B
Sun 03:03:48 AM 37.7620 -94.5350 83° East 477 549 37,000  Level FlightAware ADS-B
Sun 03:04:28 AM 37.7730 -94.4300 82° East 477 549 37,000  Level FlightAware ADS-B
Sun 03:05:28 AM 37.6510 -95.5860 263° West 37,000  Level FlightAware ADS-B
Sun 03:05:53 AM 37.7970 -94.1820 82° East 478 550 37,000  Level FlightAware ADS-B
Sun 03:06:38 AM 37.8090 -94.0600 83° East 480 552 37,000  Level FlightAware ADS-B
Sun 03:07:23 AM 37.8210 -93.9380 83° East 481 554 37,000  Level FlightAware ADS-B
Sun 03:07:58 AM 37.8290 -93.8520 83° East 481 554 37,000  Level FlightAware ADS-B
Sun 03:08:58 AM 37.8460 -93.6710 83° East 483 556 37,000  Level FlightAware ADS-B
Sun 03:09:33 AM 37.8550 -93.5790 83° East 483 556 37,000  Level FlightAware ADS-B
Sun 03:10:23 AM 37.8680 -93.4350 83° East 480 552 37,000  Level FlightAware ADS-B
Sun 03:10:58 AM 37.8760 -93.3440 84° East 480 552 37,000  Level FlightAware ADS-B
Sun 03:11:43 AM 37.8850 -93.2460 83° East 480 552 37,000  Level FlightAware ADS-B
Sun 03:12:28 AM 37.8980 -93.1050 83° East 479 551 37,000  Level FlightAware ADS-B
Sun 03:13:23 AM 37.9130 -92.9350 84° East 479 551 37,000  Level FlightAware ADS-B
Sun 03:14:08 AM 37.9230 -92.8260 83° East 479 551 37,000  Level FlightAware ADS-B
Sun 03:14:48 AM 37.9320 -92.7310 83° East 479 551 37,000  Level FlightAware ADS-B
Sun 03:15:28 AM 37.9420 -92.6360 82° East 479 551 37,000  Level FlightAware ADS-B
Sun 03:16:08 AM 37.9510 -92.5420 83° East 479 551 37,000  Level FlightAware ADS-B
Sun 03:16:48 AM 37.9600 -92.4470 83° East 479 551 37,000  Level FlightAware ADS-B
Sun 03:17:38 AM 37.9710 -92.3280 83° East 479 551 37,000  Level FlightAware ADS-B
Sun 03:18:18 AM 37.9810 -92.2330 82° East 479 551 37,000  Level FlightAware ADS-B
Sun 03:18:58 AM 37.9900 -92.1380 83° East 479 551 37,000  Level FlightAware ADS-B
Sun 03:19:38 AM 37.9990 -92.0440 83° East 479 551 37,000  Level FlightAware ADS-B
Sun 03:20:18 AM 38.0080 -91.9490 83° East 479 551 37,000  Level FlightAware ADS-B
Sun 03:21:08 AM 38.0200 -91.8300 83° East 479 551 37,000  Level FlightAware ADS-B
Sun 03:21:48 AM 38.0290 -91.7350 83° East 479 551 37,000  Level FlightAware ADS-B
Sun 03:22:28 AM 38.0380 -91.6400 83° East 479 551 37,000  Level FlightAware ADS-B
Sun 03:23:08 AM 38.0470 -91.5450 83° East 479 551 37,000  Level FlightAware ADS-B
Sun 03:26:13 AM 38.0810 -90.7760 87° East 488 562 37,000  Level FlightAware ADS-B
Sun 03:27:08 AM 38.0920 -90.6080 85° East 490 564 37,000  Level FlightAware ADS-B
Sun 03:27:53 AM 38.1000 -90.4930 85° East 491 565 37,000  Level FlightAware ADS-B
Sun 03:28:33 AM 38.1070 -90.3840 85° East 491 565 37,000  Level FlightAware ADS-B
Sun 03:29:13 AM 38.1160 -90.2510 85° East 495 570 37,000  Level FlightAware ADS-B
Sun 03:29:58 AM 38.1230 -90.1280 86° East 496 571 37,000  Level FlightAware ADS-B
Sun 03:30:38 AM 38.1310 -90.0050 85° East 498 573 37,000  Level FlightAware ADS-B
Sun 03:31:23 AM 38.1390 -89.8770 85° East 500 575 37,000  Level FlightAware ADS-B
Sun 03:31:58 AM 38.1450 -89.7840 85° East 501 577 37,000  Level FlightAware ADS-B
Sun 03:32:43 AM 38.1530 -89.6470 86° East 504 580 37,000  Level FlightAware ADS-B
Sun 03:33:28 AM 38.1610 -89.5090 86° East 505 581 37,000  Level FlightAware ADS-B
Sun 03:34:38 AM 38.1730 -89.3000 86° East 506 582 37,000  Level FlightAware ADS-B
Sun 03:35:18 AM 38.1790 -89.1820 86° East 506 582 37,000  Level FlightAware ADS-B
Sun 03:36:03 AM 38.1860 -89.0550 86° East 507 583 37,000  Level FlightAware ADS-B
Sun 03:36:38 AM 38.1920 -88.9480 86° East 508 585 37,000  Level FlightAware ADS-B
Sun 03:37:23 AM 38.1990 -88.8070 86° East 507 583 37,000  Level FlightAware ADS-B
Sun 03:38:08 AM 38.2050 -88.6840 86° East 506 582 37,000  Level FlightAware ADS-B
Sun 03:38:48 AM 38.2110 -88.5590 86° East 506 582 37,000  Level FlightAware ADS-B
Sun 03:39:33 AM 38.2180 -88.4220 86° East 506 582 37,000  Level FlightAware ADS-B
Sun 03:40:18 AM 38.2240 -88.2860 87° East 507 583 37,000  Level FlightAware ADS-B
Sun 03:40:58 AM 38.2300 -88.1680 86° East 507 583 37,000  Level FlightAware ADS-B
Sun 03:41:38 AM 38.2360 -88.0500 86° East 508 585 37,000  Level FlightAware ADS-B
Sun 03:42:23 AM 38.2410 -87.9160 87° East 510 587 37,000  Level FlightAware ADS-B
Sun 03:43:03 AM 38.2470 -87.7960 86° East 513 590 37,000  Level FlightAware ADS-B
Sun 03:43:48 AM 38.2520 -87.6590 87° East 516 594 37,000  Level FlightAware ADS-B
Sun 03:44:28 AM 38.2570 -87.5430 87° East 517 595 37,000  Level FlightAware ADS-B
Sun 03:45:08 AM 38.2620 -87.4200 87° East 517 595 37,000  Level FlightAware ADS-B
Sun 03:45:48 AM 38.2670 -87.2950 87° East 517 595 37,000  Level FlightAware ADS-B
Sun 03:46:33 AM 38.2720 -87.1600 87° East 517 595 37,000  Level FlightAware ADS-B
Sun 03:47:13 AM 38.2770 -87.0400 87° East 518 596 37,000  Level FlightAware ADS-B
Sun 03:47:58 AM 38.2820 -86.9000 87° East 519 597 37,000  Level FlightAware ADS-B
Sun 03:48:38 AM 38.2860 -86.7840 87° East 519 597 37,000  Level FlightAware ADS-B
Sun 03:49:23 AM 38.2900 -86.6410 88° East 518 596 37,000  Level FlightAware ADS-B
Sun 03:50:03 AM 38.2940 -86.5230 87° East 517 595 37,000  Level FlightAware ADS-B
Sun 03:50:43 AM 38.2980 -86.4010 88° East 518 596 37,000  Level FlightAware ADS-B
Sun 03:51:28 AM 38.3020 -86.2620 88° East 519 597 37,000  Level FlightAware ADS-B
Sun 03:52:08 AM 38.3060 -86.1470 87° East 521 600 37,000  Level FlightAware ADS-B
Sun 03:52:53 AM 38.3090 -86.0110 88° East 522 601 37,000  Level FlightAware ADS-B
Sun 03:53:28 AM 38.3130 -85.8950 87° East 522 601 37,000  Level FlightAware ADS-B
Sun 03:54:18 AM 38.3170 -85.7400 88° East 522 601 37,000  Level FlightAware ADS-B
Sun 03:54:58 AM 38.3190 -85.6170 89° East 522 601 37,000  Level FlightAware ADS-B
Sun 03:55:43 AM 38.3230 -85.4850 88° East 522 601 37,000  Level FlightAware ADS-B
Sun 03:56:23 AM 38.3250 -85.3610 89° East 523 602 37,000  Level FlightAware ADS-B
Sun 03:57:03 AM 38.3280 -85.2370 88° East 524 603 37,000  Level FlightAware ADS-B
Sun 03:57:48 AM 38.3310 -85.0970 88° East 524 603 37,000  Level FlightAware ADS-B
Sun 03:58:28 AM 38.3340 -84.9720 88° East 525 604 37,000  Level FlightAware ADS-B
Sun 03:59:08 AM 38.3360 -84.8510 89° East 524 603 37,000  Level FlightAware ADS-B
Sun 03:59:53 AM 38.3380 -84.7180 89° East 525 604 37,000  Level FlightAware ADS-B
Sun 04:00:48 AM 38.3410 -84.5410 89° East 525 604 37,000  Level FlightAware ADS-B
Sun 04:01:33 AM 38.3430 -84.4060 89° East 525 604 37,000  Level FlightAware ADS-B
Sun 04:02:08 AM 38.3450 -84.3090 88° East 525 604 37,000  Level FlightAware ADS-B
Sun 04:02:53 AM 38.3460 -84.1590 89° East 528 608 37,000  Level FlightAware ADS-B
Sun 04:03:38 AM 38.3480 -84.0160 89° East 529 609 37,000  Level FlightAware ADS-B
Sun 04:04:18 AM 38.3490 -83.8900 89° East 530 610 37,000  Level FlightAware ADS-B
Sun 04:05:03 AM 38.3500 -83.7600 89° East 530 610 37,000  Level FlightAware ADS-B
Sun 04:05:06 AM 38.3501 -83.7392 90° East 530 610 37,000  Level FlightAware ADS-B
Sun 04:05:38 AM 38.3510 -83.6610 89° East 530 610 37,000  Level FlightAware ADS-B
Sun 04:06:23 AM 38.3520 -83.5070 89° East 530 610 37,000  Level FlightAware ADS-B
Sun 04:06:58 AM 38.3520 -83.3970 90° East 532 612 37,000  Level FlightAware ADS-B
Sun 04:07:43 AM 38.3540 -83.2740 89° East 532 612 37,000  Level FlightAware ADS-B
Sun 04:08:28 AM 38.3690 -83.1200 83° East 534 615 37,000  Level FlightAware ADS-B
Sun 04:09:13 AM 38.3890 -82.9730 80° East 535 616 37,000  Level FlightAware ADS-B
Sun 04:09:53 AM 38.4060 -82.8480 80° East 535 616 37,000  Level FlightAware ADS-B
Sun 04:10:33 AM 38.4220 -82.7260 80° East 536 617 37,000  Level FlightAware ADS-B
Sun 04:11:18 AM 38.4400 -82.5880 81° East 535 616 37,000  Level FlightAware ADS-B
Sun 04:11:58 AM 38.4560 -82.4620 81° East 536 617 37,000  Level FlightAware ADS-B
Sun 04:12:43 AM 38.4748 -82.3170 81° East 537 618 37,000  Level FlightAware ADS-B
Sun 04:13:23 AM 38.4900 -82.1990 81° East 537 618 37,000  Level FlightAware ADS-B
Sun 04:14:03 AM 38.5060 -82.0700 81° East 536 617 37,000  Level FlightAware ADS-B
Sun 04:14:48 AM 38.5230 -81.9330 81° East 537 618 37,000  Level FlightAware ADS-B
Sun 04:15:28 AM 38.5390 -81.8070 81° East 537 618 37,000  Level FlightAware ADS-B
Sun 04:16:08 AM 38.5540 -81.6810 81° East 538 619 37,000  Level FlightAware ADS-B
Sun 04:16:53 AM 38.5720 -81.5380 81° East 538 619 37,000  Level FlightAware ADS-B
Sun 04:17:33 AM 38.5870 -81.4140 81° East 539 620 37,000  Level FlightAware ADS-B
Sun 04:18:13 AM 38.6020 -81.2880 81° East 539 620 37,000  Level FlightAware ADS-B
Sun 04:18:58 AM 38.6180 -81.1470 82° East 540 621 37,000  Level FlightAware ADS-B
Sun 04:19:38 AM 38.6330 -81.0240 81° East 540 621 37,000  Level FlightAware ADS-B
Sun 04:20:23 AM 38.6500 -80.8780 81° East 541 623 37,000  Level FlightAware ADS-B
Sun 04:21:03 AM 38.6650 -80.7500 81° East 542 624 37,000  Level FlightAware ADS-B
Sun 04:21:43 AM 38.6780 -80.6240 82° East 543 625 37,000  Level FlightAware ADS-B
Sun 04:22:28 AM 38.6910 -80.4840 83° East 543 625 37,000  Level FlightAware ADS-B
Sun 04:23:08 AM 38.7030 -80.3580 83° East 543 625 37,000 -776 Level FlightAware ADS-B
Sun 04:23:53 AM 38.7170 -80.2090 83° East 540 621 35,900 -1,835 Descending FlightAware ADS-B
Sun 04:24:33 AM 38.7290 -80.0870 83° East 539 620 34,400 -2,329 Descending FlightAware ADS-B
Sun 04:25:18 AM 38.7430 -79.9450 83° East 535 616 32,600 -2,471 Descending FlightAware ADS-B
Sun 04:25:58 AM 38.7540 -79.8190 84° East 534 615 30,900 -2,475 Descending FlightAware ADS-B
Sun 04:26:38 AM 38.7650 -79.6970 83° East 526 605 29,300 -2,541 Descending FlightAware ADS-B
Sun 04:27:23 AM 38.7790 -79.5540 83° East 516 594 27,300 -2,571 Descending FlightAware ADS-B
Sun 04:27:48 AM 38.7856 -79.4906 83° East 529 609 26,300 -2,471 Descending Washington Center
Sun 04:28:48 AM 38.7975 -79.3075 85° East 522 601 23,800 -2,550 Descending Washington Center
Sun 04:29:48 AM 38.8133 -79.1325 83° East 507 583 21,200 -2,650 Descending Washington Center
Sun 04:30:48 AM 38.8286 -78.9653 83° East 489 563 18,500 -2,600 Descending Washington Center
Sun 04:31:48 AM 38.8436 -78.8008 83° East 471 542 16,000 -2,550 Descending Washington Center
Sun 04:32:48 AM 38.8539 -78.6411 85° East 460 529 13,400 -2,300 Descending Washington Center
Sun 04:33:48 AM 38.8681 -78.4872 83° East 448 516 11,400 -1,500 Descending Washington Center
Sun 04:34:48 AM 38.8422 -78.3475 103° East 409 471 10,400 -850 Descending Washington Center
Sun 04:35:48 AM 38.8219 -78.2242 102° East 385 443 9,700 -1,200 Descending Washington Center
Sun 04:41:28 AM 38.7970 -77.6200 102° East 271 312 2,400 -908 Descending FlightAware ADS-B
Sun 04:45:23 AM 38.9120 -77.4600 47° Northeast 128 147 1,000 -357 Descending FlightAware ADS-B

Login

Don't have an account? Register now (free) for customized features, flight alerts, and more!